sensor_id;sensor_type;location;lat;lon;timestamp;temperature;humidity
61351;DHT22;47119;49.130;9.218;2023-04-15T04:33:50;10.99;62.73
61351;DHT22;47119;49.130;9.218;2023-04-15T04:36:36;10.97;62.81
61351;DHT22;47119;49.130;9.218;2023-04-15T04:39:12;10.99;62.82
61351;DHT22;47119;49.130;9.218;2023-04-15T04:41:41;10.99;62.83
61351;DHT22;47119;49.130;9.218;2023-04-15T04:44:40;10.97;62.78
61351;DHT22;47119;49.130;9.218;2023-04-15T04:47:10;10.93;62.89
61351;DHT22;47119;49.130;9.218;2023-04-15T04:50:06;10.94;62.86
61351;DHT22;47119;49.130;9.218;2023-04-15T04:52:48;10.97;62.85
61351;DHT22;47119;49.130;9.218;2023-04-15T04:55:33;11.00;62.97
61351;DHT22;47119;49.130;9.218;2023-04-15T04:58:16;10.97;62.95
61351;DHT22;47119;49.130;9.218;2023-04-15T05:00:52;10.97;63.13
61351;DHT22;47119;49.130;9.218;2023-04-15T05:03:28;10.99;63.21
61351;DHT22;47119;49.130;9.218;2023-04-15T05:06:12;10.99;62.90
61351;DHT22;47119;49.130;9.218;2023-04-15T05:08:44;10.94;63.05
61351;DHT22;47119;49.130;9.218;2023-04-15T05:11:17;10.93;62.92
61351;DHT22;47119;49.130;9.218;2023-04-15T05:13:45;10.97;62.90
61351;DHT22;47119;49.130;9.218;2023-04-15T05:16:16;10.97;62.96
61351;DHT22;47119;49.130;9.218;2023-04-15T05:18:45;10.96;62.82
61351;DHT22;47119;49.130;9.218;2023-04-15T05:21:25;10.92;63.04
61351;DHT22;47119;49.130;9.218;2023-04-15T05:24:56;10.93;63.01
61351;DHT22;47119;49.130;9.218;2023-04-15T05:27:30;10.93;63.06
61351;DHT22;47119;49.130;9.218;2023-04-15T05:29:59;10.97;63.02
61351;DHT22;47119;49.130;9.218;2023-04-15T05:32:30;10.99;63.01
61351;DHT22;47119;49.130;9.218;2023-04-15T05:35:01;10.97;62.80
61351;DHT22;47119;49.130;9.218;2023-04-15T05:37:31;10.99;62.79
61351;DHT22;47119;49.130;9.218;2023-04-15T05:40:05;10.97;62.69
61351;DHT22;47119;49.130;9.218;2023-04-15T05:42:36;10.94;62.86
61351;DHT22;47119;49.130;9.218;2023-04-15T05:45:06;10.94;62.94
61351;DHT22;47119;49.130;9.218;2023-04-15T05:47:41;10.93;62.87
61351;DHT22;47119;49.130;9.218;2023-04-15T05:50:20;10.96;63.04
61351;DHT22;47119;49.130;9.218;2023-04-15T05:52:57;11.00;62.92
61351;DHT22;47119;49.130;9.218;2023-04-15T05:55:42;10.96;62.86
61351;DHT22;47119;49.130;9.218;2023-04-15T05:58:17;10.94;62.94
61351;DHT22;47119;49.130;9.218;2023-04-15T06:00:47;11.00;62.94
61351;DHT22;47119;49.130;9.218;2023-04-15T06:03:57;10.94;62.99
61351;DHT22;47119;49.130;9.218;2023-04-15T06:06:35;11.00;63.29
61351;DHT22;47119;49.130;9.218;2023-04-15T06:12:22;10.97;63.05
61351;DHT22;47119;49.130;9.218;2023-04-15T06:20:03;11.03;63.23
61351;DHT22;47119;49.130;9.218;2023-04-15T06:23:09;11.06;63.02
61351;DHT22;47119;49.130;9.218;2023-04-15T06:26:38;11.08;63.08
61351;DHT22;47119;49.130;9.218;2023-04-15T06:29:34;11.10;62.95
61351;DHT22;47119;49.130;9.218;2023-04-15T06:32:15;11.11;63.10
61351;DHT22;47119;49.130;9.218;2023-04-15T06:34:44;11.08;63.03
61351;DHT22;47119;49.130;9.218;2023-04-15T06:37:12;11.14;62.96
61351;DHT22;47119;49.130;9.218;2023-04-15T06:39:42;11.15;63.21
61351;DHT22;47119;49.130;9.218;2023-04-15T06:42:13;11.27;63.07
61351;DHT22;47119;49.130;9.218;2023-04-15T06:44:42;11.30;62.81
61351;DHT22;47119;49.130;9.218;2023-04-15T06:47:10;11.23;62.97
61351;DHT22;47119;49.130;9.218;2023-04-15T06:49:40;11.21;63.09
61351;DHT22;47119;49.130;9.218;2023-04-15T06:52:12;11.21;62.98
61351;DHT22;47119;49.130;9.218;2023-04-15T06:54:52;11.24;63.06
61351;DHT22;47119;49.130;9.218;2023-04-15T06:57:23;11.25;63.08
61351;DHT22;47119;49.130;9.218;2023-04-15T06:59:54;11.28;62.96
61351;DHT22;47119;49.130;9.218;2023-04-15T07:02:23;11.24;63.03
61351;DHT22;47119;49.130;9.218;2023-04-15T07:04:52;11.25;63.19
61351;DHT22;47119;49.130;9.218;2023-04-15T07:07:20;11.27;63.11
61351;DHT22;47119;49.130;9.218;2023-04-15T07:09:48;11.24;63.26
61351;DHT22;47119;49.130;9.218;2023-04-15T07:12:17;11.28;63.27
61351;DHT22;47119;49.130;9.218;2023-04-15T07:14:46;11.28;63.27
61351;DHT22;47119;49.130;9.218;2023-04-15T07:17:15;11.35;63.30
61351;DHT22;47119;49.130;9.218;2023-04-15T07:19:43;11.32;63.48
61351;DHT22;47119;49.130;9.218;2023-04-15T07:22:13;11.31;63.55
61351;DHT22;47119;49.130;9.218;2023-04-15T07:24:41;11.34;63.58
61351;DHT22;47119;49.130;9.218;2023-04-15T07:27:10;11.38;63.66
61351;DHT22;47119;49.130;9.218;2023-04-15T07:29:39;11.38;63.74
61351;DHT22;47119;49.130;9.218;2023-04-15T07:32:09;11.45;63.66
61351;DHT22;47119;49.130;9.218;2023-04-15T07:34:37;11.45;63.62
61351;DHT22;47119;49.130;9.218;2023-04-15T07:37:05;11.48;63.61
61351;DHT22;47119;49.130;9.218;2023-04-15T07:39:34;11.57;63.78
61351;DHT22;47119;49.130;9.218;2023-04-15T07:42:02;11.71;63.64
61351;DHT22;47119;49.130;9.218;2023-04-15T07:44:31;11.69;63.59
61351;DHT22;47119;49.130;9.218;2023-04-15T07:47:02;11.68;63.70
61351;DHT22;47119;49.130;9.218;2023-04-15T07:59:37;11.79;63.68
61351;DHT22;47119;49.130;9.218;2023-04-15T11:40:08;12.67;53.12
61351;DHT22;47119;49.130;9.218;2023-04-15T11:42:43;12.65;52.78
61351;DHT22;47119;49.130;9.218;2023-04-15T11:45:21;12.61;52.18
61351;DHT22;47119;49.130;9.218;2023-04-15T11:51:35;12.65;51.18
61351;DHT22;47119;49.130;9.218;2023-04-15T11:54:03;12.61;51.29
61351;DHT22;47119;49.130;9.218;2023-04-15T11:56:32;12.63;49.33
61351;DHT22;47119;49.130;9.218;2023-04-15T11:59:03;12.57;48.55
61351;DHT22;47119;49.130;9.218;2023-04-15T12:07:57;12.61;48.76
61351;DHT22;47119;49.130;9.218;2023-04-15T12:10:25;12.55;49.71
61351;DHT22;47119;49.130;9.218;2023-04-15T12:12:56;12.57;49.86
61351;DHT22;47119;49.130;9.218;2023-04-15T12:15:24;12.64;49.67
61351;DHT22;47119;49.130;9.218;2023-04-15T12:17:54;12.60;50.14
61351;DHT22;47119;49.130;9.218;2023-04-15T12:20:24;12.63;49.84
61351;DHT22;47119;49.130;9.218;2023-04-15T12:22:52;12.64;49.87
61351;DHT22;47119;49.130;9.218;2023-04-15T12:25:50;12.63;50.55
61351;DHT22;47119;49.130;9.218;2023-04-15T12:28:19;12.67;50.67
61351;DHT22;47119;49.130;9.218;2023-04-15T12:30:49;12.65;50.29
61351;DHT22;47119;49.130;9.218;2023-04-15T12:33:18;12.67;50.19
61351;DHT22;47119;49.130;9.218;2023-04-15T12:35:46;12.69;50.40
61351;DHT22;47119;49.130;9.218;2023-04-15T12:38:22;12.65;50.65
61351;DHT22;47119;49.130;9.218;2023-04-15T12:41:00;12.63;50.14
61351;DHT22;47119;49.130;9.218;2023-04-15T13:31:59;12.77;51.19
61351;DHT22;47119;49.130;9.218;2023-04-15T13:34:27;12.78;51.54
61351;DHT22;47119;49.130;9.218;2023-04-15T13:37:12;12.75;52.06
61351;DHT22;47119;49.130;9.218;2023-04-15T13:39:48;12.73;51.74
61351;DHT22;47119;49.130;9.218;2023-04-15T13:42:16;12.73;51.85
61351;DHT22;47119;49.130;9.218;2023-04-15T13:44:46;12.68;52.02
61351;DHT22;47119;49.130;9.218;2023-04-15T13:47:41;12.68;52.07
61351;DHT22;47119;49.130;9.218;2023-04-15T13:50:16;12.67;51.86
61351;DHT22;47119;49.130;9.218;2023-04-15T13:52:44;12.69;52.27
61351;DHT22;47119;49.130;9.218;2023-04-15T13:55:14;12.75;51.78
61351;DHT22;47119;49.130;9.218;2023-04-15T13:57:41;12.78;51.81
61351;DHT22;47119;49.130;9.218;2023-04-15T14:00:10;12.77;52.62
61351;DHT22;47119;49.130;9.218;2023-04-15T14:02:40;12.75;51.97
61351;DHT22;47119;49.130;9.218;2023-04-15T14:05:09;12.78;52.65
61351;DHT22;47119;49.130;9.218;2023-04-15T14:07:42;12.77;52.93
61351;DHT22;47119;49.130;9.218;2023-04-15T14:12:07;12.77;53.19
61351;DHT22;47119;49.130;9.218;2023-04-15T18:21:14;12.41;71.91
61351;DHT22;47119;49.130;9.218;2023-04-15T18:23:42;12.37;72.20
61351;DHT22;47119;49.130;9.218;2023-04-15T18:26:09;12.40;71.82
61351;DHT22;47119;49.130;9.218;2023-04-15T18:28:36;12.38;72.35
61351;DHT22;47119;49.130;9.218;2023-04-15T18:31:06;12.41;71.89
61351;DHT22;47119;49.130;9.218;2023-04-15T18:33:33;12.41;72.42
61351;DHT22;47119;49.130;9.218;2023-04-15T18:36:03;12.45;72.11
61351;DHT22;47119;49.130;9.218;2023-04-15T18:38:32;12.43;72.32
61351;DHT22;47119;49.130;9.218;2023-04-15T18:41:01;12.44;72.07
61351;DHT22;47119;49.130;9.218;2023-04-15T18:51:42;12.40;72.43
61351;DHT22;47119;49.130;9.218;2023-04-15T18:57:50;12.32;72.59
61351;DHT22;47119;49.130;9.218;2023-04-15T19:00:49;12.32;72.56
61351;DHT22;47119;49.130;9.218;2023-04-15T19:04:06;12.29;72.91
61351;DHT22;47119;49.130;9.218;2023-04-15T19:07:01;12.34;72.84
61351;DHT22;47119;49.130;9.218;2023-04-15T19:10:06;12.34;72.92
61351;DHT22;47119;49.130;9.218;2023-04-15T19:13:33;12.37;72.98
61351;DHT22;47119;49.130;9.218;2023-04-15T19:16:00;12.38;73.14
61351;DHT22;47119;49.130;9.218;2023-04-15T19:18:33;12.38;73.13
61351;DHT22;47119;49.130;9.218;2023-04-15T19:49:32;12.38;73.25
61351;DHT22;47119;49.130;9.218;2023-04-15T19:53:42;12.47;72.94
61351;DHT22;47119;49.130;9.218;2023-04-15T20:01:08;12.38;73.33
61351;DHT22;47119;49.130;9.218;2023-04-15T20:05:15;12.33;73.52
61351;DHT22;47119;49.130;9.218;2023-04-15T20:13:18;12.36;73.58
61351;DHT22;47119;49.130;9.218;2023-04-15T20:24:12;12.34;73.92
61351;DHT22;47119;49.130;9.218;2023-04-15T20:26:57;12.29;73.99
61351;DHT22;47119;49.130;9.218;2023-04-15T20:29:29;12.33;73.73
61351;DHT22;47119;49.130;9.218;2023-04-15T20:34:45;12.30;73.85
61351;DHT22;47119;49.130;9.218;2023-04-15T20:37:36;12.27;74.05
61351;DHT22;47119;49.130;9.218;2023-04-15T21:05:08;12.34;73.83
61351;DHT22;47119;49.130;9.218;2023-04-15T21:07:35;12.32;73.95
61351;DHT22;47119;49.130;9.218;2023-04-15T21:10:03;12.23;74.00
61351;DHT22;47119;49.130;9.218;2023-04-15T21:12:31;12.27;74.20
61351;DHT22;47119;49.130;9.218;2023-04-15T21:14:58;12.30;74.15
61351;DHT22;47119;49.130;9.218;2023-04-15T21:17:27;12.29;74.09
61351;DHT22;47119;49.130;9.218;2023-04-15T21:19:57;12.29;74.12
61351;DHT22;47119;49.130;9.218;2023-04-15T21:22:29;12.29;74.25
61351;DHT22;47119;49.130;9.218;2023-04-15T21:24:59;12.29;74.06
61351;DHT22;47119;49.130;9.218;2023-04-15T21:27:27;12.29;74.29
61351;DHT22;47119;49.130;9.218;2023-04-15T21:30:08;12.26;74.19
61351;DHT22;47119;49.130;9.218;2023-04-15T22:25:58;12.40;74.22
61351;DHT22;47119;49.130;9.218;2023-04-15T22:28:48;12.36;73.93
61351;DHT22;47119;49.130;9.218;2023-04-15T22:31:47;12.41;73.76
61351;DHT22;47119;49.130;9.218;2023-04-15T22:34:24;12.37;74.19
61351;DHT22;47119;49.130;9.218;2023-04-15T22:40:51;12.07;75.30
61351;DHT22;47119;49.130;9.218;2023-04-15T22:51:29;12.30;74.27
61351;DHT22;47119;49.130;9.218;2023-04-15T22:54:03;12.37;74.19
61351;DHT22;47119;49.130;9.218;2023-04-15T22:56:30;12.30;74.44
61351;DHT22;47119;49.130;9.218;2023-04-15T22:58:58;12.34;74.87
61351;DHT22;47119;49.130;9.218;2023-04-15T23:01:46;12.38;74.45
61351;DHT22;47119;49.130;9.218;2023-04-15T23:04:31;12.33;74.71
61351;DHT22;47119;49.130;9.218;2023-04-15T23:07:10;12.32;74.74
61351;DHT22;47119;49.130;9.218;2023-04-15T23:09:46;12.38;74.51
61351;DHT22;47119;49.130;9.218;2023-04-15T23:12:23;12.34;74.39
61351;DHT22;47119;49.130;9.218;2023-04-15T23:15:01;12.32;74.64
61351;DHT22;47119;49.130;9.218;2023-04-15T23:17:32;12.32;74.58
61351;DHT22;47119;49.130;9.218;2023-04-15T23:20:18;12.30;74.82
61351;DHT22;47119;49.130;9.218;2023-04-15T23:22:46;12.34;74.81
61351;DHT22;47119;49.130;9.218;2023-04-15T23:25:26;12.41;74.46
61351;DHT22;47119;49.130;9.218;2023-04-15T23:27:54;12.32;74.60
61351;DHT22;47119;49.130;9.218;2023-04-15T23:30:29;12.34;74.56
61351;DHT22;47119;49.130;9.218;2023-04-15T23:32:57;12.37;74.66
61351;DHT22;47119;49.130;9.218;2023-04-15T23:35:26;12.43;74.43
61351;DHT22;47119;49.130;9.218;2023-04-15T23:37:53;12.36;74.62
61351;DHT22;47119;49.130;9.218;2023-04-15T23:40:21;12.33;74.78
61351;DHT22;47119;49.130;9.218;2023-04-15T23:42:48;12.30;74.86
61351;DHT22;47119;49.130;9.218;2023-04-15T23:45:16;12.32;74.94
61351;DHT22;47119;49.130;9.218;2023-04-15T23:47:55;12.32;74.80
61351;DHT22;47119;49.130;9.218;2023-04-15T23:50:45;12.29;74.66
61351;DHT22;47119;49.130;9.218;2023-04-15T23:53:13;12.29;74.90
61351;DHT22;47119;49.130;9.218;2023-04-15T23:56:26;12.27;74.87
61351;DHT22;47119;49.130;9.218;2023-04-15T23:58:53;12.26;74.99
